Celebrity Mercury — 9HJG9 — position and weather

sailwx.info

Track history (hours):
 
Tides and Currents Weather Stations Pressure Air Temp Water Temp Dewpoint Dewpoint Depression Visibility Wind Speed Wind Dir Waves Ship Positions

Celebrity Mercury

Last reported at 2019-Oct-23 04:38 UTC. Time now 2019-Oct-23 22:10 UTC.
Position N 41°50' E 008°41'.

Length 264 m; draft 8.5 m.

Type: Passenger vessel. MMSI: 249053000.

Date/timePositionNaut miles runAvg speedWind from/ knotsBaromVisibWave heightAir tempDewpointWater temp
2019-Oct-23 04:38N 41°50' E 008°41'212.6
2019-Oct-23 04:30N 41°49' E 008°40'612.5
2019-Oct-23 04:00N 41°43' E 008°36'713.2
2019-Oct-23 03:28N 41°36' E 008°40'10111.4
2019-Oct-22 18:34N 40°24' E 010°14'119.5
2019-Oct-22 18:30N 40°23' E 010°15'1019.4
2019-Oct-22 18:00N 40°15' E 010°21'816.8
2019-Oct-22 17:30N 40°07' E 010°26'713.2
2019-Oct-22 17:00N 40°01' E 010°30'713.7
2019-Oct-22 16:30N 39°55' E 010°33'288 6.4
2019-Oct-20 19:21N 37°01' E 015°27'25 1.7
2019-Oct-20 04:20N 37°26' E 015°21'616.6
2019-Oct-20 04:01N 37°25' E 015°28'815.1
2019-Oct-20 03:28N 37°24' E 015°38'613.1
2019-Oct-20 03:01N 37°22' E 015°45'713.3
2019-Oct-20 02:31N 37°21' E 015°53'713.4
2019-Oct-20 02:00N 37°20' E 016°02'1613.2
2019-Oct-20 00:47N 37°17' E 016°22'413.4
2019-Oct-20 00:27N 37°16' E 016°27'37213.1
2019-Oct-18 20:00N 36°18' E 024°06'56 3.2 180 / 91018.0 5.4 23.0 27.0
2019-Oct-18 02:46N 36°23' E 025°15'513.3
2019-Oct-18 02:23N 36°23' E 025°09'513.5
2019-Oct-18 02:00N 36°23' E 025°02'1213.2
2019-Oct-18 01:07N 36°23' E 024°48'5211.9
2019-Oct-17 20:45N 37°00' E 024°02'1314.3
2019-Oct-17 19:50N 37°13' E 023°56'513.9
2019-Oct-17 19:27N 37°17' E 023°53'713.5
2019-Oct-17 18:55N 37°24' E 023°50'513.1
2019-Oct-17 18:30N 37°29' E 023°48'613.0
2019-Oct-17 18:01N 37°35' E 023°45'713.1
2019-Oct-17 17:31N 37°41' E 023°41'713.1
2019-Oct-17 17:01N 37°47' E 023°38'612.6
2019-Oct-17 16:30N 37°53' E 023°36'4 7.5
2019-Oct-17 16:00N 37°57' E 023°38'0 0.4
2019-Oct-17 15:26N 37°56' E 023°38'0 0.0
2019-Oct-17 14:56N 37°56' E 023°38'0 0.0
2019-Oct-17 14:26N 37°56' E 023°38'0 0.0
2019-Oct-17 13:56N 37°56' E 023°38'0 0.0
2019-Oct-17 13:26N 37°56' E 023°38'0 0.0
2019-Oct-17 12:56N 37°56' E 023°38'0 0.0
2019-Oct-17 12:20N 37°56' E 023°38'0 0.0
2019-Oct-17 11:50N 37°56' E 023°38'0 0.0
2019-Oct-17 11:26N 37°56' E 023°38'0 0.0
2019-Oct-17 10:56N 37°56' E 023°38'0 0.0
2019-Oct-17 10:26N 37°56' E 023°38'0 0.0
2019-Oct-17 09:56N 37°56' E 023°38'0 0.0
2019-Oct-17 09:26N 37°56' E 023°38'0 0.0
2019-Oct-17 08:56N 37°56' E 023°38'0 0.0
2019-Oct-17 08:26N 37°56' E 023°38'0 0.0
2019-Oct-17 07:56N 37°56' E 023°38'0 0.0
2019-Oct-17 07:26N 37°56' E 023°38'0 0.0
2019-Oct-17 06:56N 37°56' E 023°38'0 0.0
2019-Oct-17 06:26N 37°56' E 023°38'0 0.0
2019-Oct-17 05:56N 37°56' E 023°38'0 0.0
2019-Oct-17 05:26N 37°56' E 023°38'0 0.0
2019-Oct-17 04:56N 37°56' E 023°38'0 0.0
2019-Oct-17 04:26N 37°56' E 023°38'0 0.0
2019-Oct-17 03:50N 37°56' E 023°38'0 0.0
2019-Oct-17 03:26N 37°56' E 023°38'0 0.0
2019-Oct-17 02:56N 37°56' E 023°38'0 0.0
2019-Oct-17 02:26N 37°56' E 023°38'0 0.3
2019-Oct-17 02:01N 37°56' E 023°38'2 3.5
2019-Oct-17 01:31N 37°55' E 023°37'714.5
2019-Oct-17 01:00N 37°48' E 023°40'816.5
2019-Oct-17 00:30N 37°41' E 023°45'817.0
2019-Oct-17 00:00N 37°33' E 023°49'816.5
2019-Oct-16 23:30N 37°25' E 023°53'5416.0
2019-Oct-16 20:06N 36°34' E 024°16'7616.2
2019-Oct-16 15:24N 35°29' E 025°04'3 0.3
2019-Oct-16 03:27N 35°28' E 025°00'713.3
2019-Oct-16 02:54N 35°30' E 024°52'513.2
2019-Oct-16 02:30N 35°32' E 024°46'713.2
2019-Oct-16 02:00N 35°34' E 024°38'713.8
2019-Oct-16 01:30N 35°35' E 024°30'713.7
2019-Oct-16 01:00N 35°37' E 024°22'815.5
2019-Oct-16 00:30N 35°39' E 024°12'1116.9
2019-Oct-15 23:52N 35°42' E 023°60'617.0
2019-Oct-15 23:29N 35°44' E 023°52'  
2019-Oct-13 19:00N 36°42' E 013°18'18115.0 150 / 71022.010.8 24.0 28.0
2019-Oct-13 07:00N 39°06' E 011°00'   130 / 141022.010.8 23.0 27.0
Track history (hours):
 
Tides and Currents Weather Stations Pressure Air Temp Water Temp Dewpoint Dewpoint Depression Visibility Wind Speed Wind Dir Waves Ship Positions

Celebrity Mercury

Last reported at 2019-Oct-23 04:38 UTC. Time now 2019-Oct-23 22:10 UTC.
Position N 41°50' E 008°41'.

Length 264 m; draft 8.5 m.

Type: Passenger vessel. MMSI: 249053000.

Date/timePositionNaut miles runAvg speedWind from/ knotsBaromVisibWave heightAir tempDewpointWater temp
2019-Oct-23 04:38N 41°50' E 008°41'212.6
2019-Oct-23 04:30N 41°49' E 008°40'612.5
2019-Oct-23 04:00N 41°43' E 008°36'713.2
2019-Oct-23 03:28N 41°36' E 008°40'10111.4
2019-Oct-22 18:34N 40°24' E 010°14'119.5
2019-Oct-22 18:30N 40°23' E 010°15'1019.4
2019-Oct-22 18:00N 40°15' E 010°21'816.8
2019-Oct-22 17:30N 40°07' E 010°26'713.2
2019-Oct-22 17:00N 40°01' E 010°30'713.7
2019-Oct-22 16:30N 39°55' E 010°33'288 6.4
2019-Oct-20 19:21N 37°01' E 015°27'25 1.7
2019-Oct-20 04:20N 37°26' E 015°21'616.6
2019-Oct-20 04:01N 37°25' E 015°28'815.1
2019-Oct-20 03:28N 37°24' E 015°38'613.1
2019-Oct-20 03:01N 37°22' E 015°45'713.3
2019-Oct-20 02:31N 37°21' E 015°53'713.4
2019-Oct-20 02:00N 37°20' E 016°02'1613.2
2019-Oct-20 00:47N 37°17' E 016°22'413.4
2019-Oct-20 00:27N 37°16' E 016°27'37213.1
2019-Oct-18 20:00N 36°18' E 024°06'56 3.2 180 / 91018.0 5.4 23.0 27.0
2019-Oct-18 02:46N 36°23' E 025°15'513.3
2019-Oct-18 02:23N 36°23' E 025°09'513.5
2019-Oct-18 02:00N 36°23' E 025°02'1213.2
2019-Oct-18 01:07N 36°23' E 024°48'5211.9
2019-Oct-17 20:45N 37°00' E 024°02'1314.3
2019-Oct-17 19:50N 37°13' E 023°56'513.9
2019-Oct-17 19:27N 37°17' E 023°53'713.5
2019-Oct-17 18:55N 37°24' E 023°50'513.1
2019-Oct-17 18:30N 37°29' E 023°48'613.0
2019-Oct-17 18:01N 37°35' E 023°45'713.1
2019-Oct-17 17:31N 37°41' E 023°41'713.1
2019-Oct-17 17:01N 37°47' E 023°38'612.6
2019-Oct-17 16:30N 37°53' E 023°36'4 7.5
2019-Oct-17 16:00N 37°57' E 023°38'0 0.4
2019-Oct-17 15:26N 37°56' E 023°38'0 0.0
2019-Oct-17 14:56N 37°56' E 023°38'0 0.0
2019-Oct-17 14:26N 37°56' E 023°38'0 0.0
2019-Oct-17 13:56N 37°56' E 023°38'0 0.0
2019-Oct-17 13:26N 37°56' E 023°38'0 0.0
2019-Oct-17 12:56N 37°56' E 023°38'0 0.0
2019-Oct-17 12:20N 37°56' E 023°38'0 0.0
2019-Oct-17 11:50N 37°56' E 023°38'0 0.0
2019-Oct-17 11:26N 37°56' E 023°38'0 0.0
2019-Oct-17 10:56N 37°56' E 023°38'0 0.0
2019-Oct-17 10:26N 37°56' E 023°38'0 0.0
2019-Oct-17 09:56N 37°56' E 023°38'0 0.0
2019-Oct-17 09:26N 37°56' E 023°38'0 0.0
2019-Oct-17 08:56N 37°56' E 023°38'0 0.0
2019-Oct-17 08:26N 37°56' E 023°38'0 0.0
2019-Oct-17 07:56N 37°56' E 023°38'0 0.0
2019-Oct-17 07:26N 37°56' E 023°38'0 0.0
2019-Oct-17 06:56N 37°56' E 023°38'0 0.0
2019-Oct-17 06:26N 37°56' E 023°38'0 0.0
2019-Oct-17 05:56N 37°56' E 023°38'0 0.0
2019-Oct-17 05:26N 37°56' E 023°38'0 0.0
2019-Oct-17 04:56N 37°56' E 023°38'0 0.0
2019-Oct-17 04:26N 37°56' E 023°38'0 0.0
2019-Oct-17 03:50N 37°56' E 023°38'0 0.0
2019-Oct-17 03:26N 37°56' E 023°38'0 0.0
2019-Oct-17 02:56N 37°56' E 023°38'0 0.0
2019-Oct-17 02:26N 37°56' E 023°38'0 0.3
2019-Oct-17 02:01N 37°56' E 023°38'2 3.5
2019-Oct-17 01:31N 37°55' E 023°37'714.5
2019-Oct-17 01:00N 37°48' E 023°40'816.5
2019-Oct-17 00:30N 37°41' E 023°45'817.0
2019-Oct-17 00:00N 37°33' E 023°49'816.5
2019-Oct-16 23:30N 37°25' E 023°53'5416.0
2019-Oct-16 20:06N 36°34' E 024°16'7616.2
2019-Oct-16 15:24N 35°29' E 025°04'3 0.3
2019-Oct-16 03:27N 35°28' E 025°00'713.3
2019-Oct-16 02:54N 35°30' E 024°52'513.2
2019-Oct-16 02:30N 35°32' E 024°46'713.2
2019-Oct-16 02:00N 35°34' E 024°38'713.8
2019-Oct-16 01:30N 35°35' E 024°30'713.7
2019-Oct-16 01:00N 35°37' E 024°22'815.5
2019-Oct-16 00:30N 35°39' E 024°12'1116.9
2019-Oct-15 23:52N 35°42' E 023°60'617.0
2019-Oct-15 23:29N 35°44' E 023°52'  
2019-Oct-13 19:00N 36°42' E 013°18'18115.0 150 / 71022.010.8 24.0 28.0
2019-Oct-13 07:00N 39°06' E 011°00'   130 / 141022.010.8 23.0 27.0

Dump ship's entire track history